createdAt,value
2023-10-09T00:00:41.646Z,76.60
2023-10-09T00:01:18.909Z,76.28
2023-10-09T00:01:54.166Z,76.04
2023-10-09T00:02:25.944Z,75.84
2023-10-09T00:02:59.873Z,76.07
2023-10-09T00:03:33.020Z,75.94
2023-10-09T00:04:05.471Z,76.06
2023-10-09T00:04:39.804Z,75.86
2023-10-09T00:05:24.162Z,75.60
2023-10-09T00:05:56.857Z,75.63
2023-10-09T00:06:40.633Z,75.90
2023-10-09T00:07:12.948Z,75.91
2023-10-09T00:07:44.671Z,76.03
2023-10-09T00:08:23.340Z,76.15
2023-10-09T00:08:56.085Z,76.07
2023-10-09T00:09:32.310Z,75.74
2023-10-09T00:10:13.691Z,75.75
2023-10-09T00:10:55.080Z,75.53
2023-10-09T00:11:31.233Z,75.43
2023-10-09T00:12:11.377Z,75.42
2023-10-09T00:12:44.505Z,75.48
2023-10-09T00:13:16.979Z,75.65
2023-10-09T00:13:58.779Z,75.93
2023-10-09T00:14:34.382Z,75.93
2023-10-09T00:15:12.981Z,76.41
2023-10-09T00:15:44.730Z,77.42
2023-10-09T00:16:18.216Z,78.34
2023-10-09T00:16:50.426Z,78.17
2023-10-09T00:17:23.680Z,77.92
2023-10-09T00:18:00.084Z,78.53
2023-10-09T00:18:35.060Z,78.75
2023-10-09T00:19:31.412Z,78.73
2023-10-09T00:20:18.827Z,78.49
2023-10-09T00:20:55.865Z,78.04
2023-10-09T00:21:35.979Z,77.93
2023-10-09T00:22:25.746Z,77.45
2023-10-09T00:22:58.013Z,76.84
2023-10-09T00:23:32.792Z,77.00
2023-10-09T00:24:07.120Z,76.40
2023-10-09T00:24:46.524Z,76.51
2023-10-09T00:25:25.024Z,76.44
2023-10-09T00:26:17.771Z,76.54
2023-10-09T00:26:50.274Z,76.70
2023-10-09T00:27:25.179Z,76.67
2023-10-09T00:27:57.116Z,76.77
2023-10-09T00:28:28.784Z,76.79
2023-10-09T00:29:00.442Z,76.90
2023-10-09T00:29:36.255Z,76.78
2023-10-09T00:30:08.760Z,76.87
2023-10-09T00:30:43.300Z,76.79
2023-10-09T00:31:41.477Z,76.83
2023-10-09T00:32:28.040Z,76.86
2023-10-09T00:32:59.885Z,76.70
2023-10-09T00:33:31.833Z,76.72
2023-10-09T00:34:06.702Z,76.79
2023-10-09T00:34:40.930Z,76.34
2023-10-09T00:35:31.371Z,76.54
2023-10-09T00:36:10.569Z,76.77
2023-10-09T00:36:52.364Z,77.22
2023-10-09T00:37:26.005Z,77.12
2023-10-09T00:38:04.576Z,77.18
2023-10-09T00:38:48.185Z,77.18
2023-10-09T00:39:40.465Z,77.16
2023-10-09T00:40:21.735Z,76.99
2023-10-09T00:41:08.857Z,76.91
2023-10-09T00:41:42.842Z,77.00
2023-10-09T00:42:15.675Z,76.86
2023-10-09T00:42:48.574Z,76.73
2023-10-09T00:43:20.442Z,76.42
2023-10-09T00:43:54.139Z,76.64
2023-10-09T00:44:27.227Z,76.97
2023-10-09T00:45:04.842Z,76.99
2023-10-09T00:45:41.175Z,77.05
2023-10-09T00:46:22.142Z,77.09
2023-10-09T00:46:55.378Z,76.74
2023-10-09T00:47:36.088Z,77.05
2023-10-09T00:48:09.822Z,77.04
2023-10-09T00:48:41.951Z,77.29
2023-10-09T00:49:17.243Z,77.34
2023-10-09T00:50:00.328Z,77.27
2023-10-09T00:50:36.902Z,77.09
2023-10-09T00:51:17.876Z,77.19
2023-10-09T00:51:57.692Z,76.83
2023-10-09T00:52:54.701Z,76.90
2023-10-09T00:53:33.858Z,76.65
2023-10-09T00:54:16.759Z,76.98
2023-10-09T00:54:52.565Z,76.71
2023-10-09T00:55:43.234Z,77.16
2023-10-09T00:56:22.007Z,77.15
2023-10-09T00:57:07.778Z,76.91
2023-10-09T00:57:40.004Z,76.98
2023-10-09T00:58:16.373Z,77.14
2023-10-09T00:58:56.667Z,77.63
2023-10-09T00:59:28.831Z,78.10
2023-10-09T01:00:00.996Z,77.92
2023-10-09T01:00:32.989Z,77.90
2023-10-09T01:01:06.243Z,77.87
2023-10-09T01:01:41.247Z,78.20
2023-10-09T01:02:13.047Z,78.44
2023-10-09T01:02:45.768Z,78.15
2023-10-09T01:03:19.503Z,78.14
2023-10-09T01:03:52.925Z,78.58
2023-10-09T01:04:27.457Z,78.56
2023-10-09T01:05:00.829Z,78.22
2023-10-09T01:05:32.819Z,78.41
2023-10-09T01:06:10.681Z,77.78
2023-10-09T01:06:46.675Z,77.36
2023-10-09T01:07:25.381Z,77.36
2023-10-09T01:07:59.898Z,77.31
2023-10-09T01:08:43.588Z,77.05
2023-10-09T01:09:18.206Z,76.84
2023-10-09T01:09:52.789Z,77.24
2023-10-09T01:10:24.448Z,77.34
2023-10-09T01:11:09.951Z,77.44
2023-10-09T01:12:00.868Z,79.39
2023-10-09T01:12:33.146Z,80.35
2023-10-09T01:13:04.885Z,80.25
2023-10-09T01:13:47.581Z,80.06
2023-10-09T01:14:22.483Z,79.90
2023-10-09T01:14:56.757Z,79.19
2023-10-09T01:15:37.363Z,78.54
2023-10-09T01:16:16.937Z,78.72
2023-10-09T01:16:48.957Z,78.93
2023-10-09T01:17:30.604Z,79.03
2023-10-09T01:18:03.918Z,78.86
2023-10-09T01:18:39.876Z,79.02
2023-10-09T01:19:16.142Z,79.17
2023-10-09T01:19:48.560Z,79.14
2023-10-09T01:20:31.340Z,79.04
2023-10-09T01:21:04.346Z,78.82
2023-10-09T01:21:36.117Z,78.57
2023-10-09T01:22:17.531Z,78.60
2023-10-09T01:22:51.790Z,78.70
2023-10-09T01:23:24.822Z,78.69
2023-10-09T01:24:09.850Z,79.01
2023-10-09T01:24:41.958Z,79.41
2023-10-09T01:25:13.889Z,79.73
2023-10-09T01:25:47.031Z,79.49
2023-10-09T01:26:19.778Z,79.16
2023-10-09T01:26:55.615Z,79.02
2023-10-09T01:27:33.877Z,79.06
2023-10-09T01:28:06.026Z,79.43
2023-10-09T01:28:39.439Z,80.13
2023-10-09T01:29:16.025Z,80.61
2023-10-09T01:29:47.976Z,81.46
2023-10-09T01:30:21.415Z,81.50
2023-10-09T01:30:53.288Z,82.20
2023-10-09T01:31:28.139Z,81.70
2023-10-09T01:32:02.354Z,81.34
2023-10-09T01:32:36.024Z,81.24
2023-10-09T01:33:14.016Z,81.47
2023-10-09T01:33:46.272Z,81.61
2023-10-09T01:34:25.651Z,81.24
2023-10-09T01:34:58.897Z,80.99
2023-10-09T01:35:33.798Z,81.22
2023-10-09T01:36:06.760Z,81.35
2023-10-09T01:36:40.751Z,81.42
2023-10-09T01:37:20.307Z,81.31
2023-10-09T01:37:52.838Z,81.18
2023-10-09T01:38:41.346Z,81.56
2023-10-09T01:39:24.794Z,81.34
2023-10-09T01:40:21.137Z,81.65
2023-10-09T01:40:53.310Z,82.02
2023-10-09T01:41:24.970Z,81.75
2023-10-09T01:42:01.456Z,81.81
2023-10-09T01:42:36.530Z,81.66
2023-10-09T01:43:11.535Z,81.63
2023-10-09T01:43:46.059Z,81.70
2023-10-09T01:44:17.827Z,81.91
2023-10-09T01:44:49.754Z,82.13
2023-10-09T01:45:21.560Z,81.87
2023-10-09T01:45:53.347Z,81.63
2023-10-09T01:46:25.111Z,81.44
2023-10-09T01:46:58.868Z,81.42
2023-10-09T01:47:33.156Z,81.59
2023-10-09T01:48:06.577Z,82.06
2023-10-09T01:48:41.397Z,82.41
2023-10-09T01:49:22.558Z,82.08
2023-10-09T01:49:55.125Z,82.75
2023-10-09T01:50:32.907Z,83.03
2023-10-09T01:51:06.325Z,83.40
2023-10-09T01:51:39.819Z,83.45
2023-10-09T01:52:16.943Z,83.76
2023-10-09T01:52:50.755Z,84.03
2023-10-09T01:53:26.508Z,84.39
2023-10-09T01:53:59.913Z,84.32
2023-10-09T01:54:38.078Z,83.95
2023-10-09T01:55:13.988Z,83.74
2023-10-09T01:55:47.222Z,83.69
2023-10-09T01:56:19.032Z,83.50
2023-10-09T01:56:50.692Z,83.23
2023-10-09T01:57:25.979Z,82.99
2023-10-09T01:58:06.868Z,82.91
2023-10-09T01:58:39.023Z,82.64
2023-10-09T01:59:11.079Z,82.36
2023-10-09T01:59:48.435Z,82.38
2023-10-09T02:00:24.836Z,82.64
2023-10-09T02:00:57.439Z,82.50
2023-10-09T02:01:29.401Z,82.59
2023-10-09T02:02:07.252Z,82.54
2023-10-09T02:02:39.822Z,82.47
2023-10-09T02:03:14.529Z,83.00
2023-10-09T02:03:46.911Z,83.09
2023-10-09T02:04:21.352Z,83.52
2023-10-09T02:05:13.847Z,83.15
2023-10-09T02:05:45.690Z,83.18
2023-10-09T02:06:27.631Z,82.96
2023-10-09T02:06:59.469Z,82.47
2023-10-09T02:07:41.335Z,81.90
2023-10-09T02:08:14.022Z,82.14
2023-10-09T02:08:50.957Z,82.11
2023-10-09T02:09:24.101Z,82.40
2023-10-09T02:09:56.833Z,82.44
2023-10-09T02:10:31.382Z,81.88
2023-10-09T02:11:03.540Z,81.75
2023-10-09T02:11:37.865Z,81.77
2023-10-09T02:12:09.681Z,81.63
2023-10-09T02:12:42.123Z,81.80
2023-10-09T02:13:18.201Z,82.15
2023-10-09T02:13:54.918Z,82.86
2023-10-09T02:14:26.669Z,83.62
2023-10-09T02:14:58.332Z,83.84
2023-10-09T02:15:46.800Z,83.63
2023-10-09T02:16:29.866Z,83.70
2023-10-09T02:17:07.173Z,83.23
2023-10-09T02:17:53.135Z,83.09
2023-10-09T02:18:24.932Z,83.54
2023-10-09T02:18:57.603Z,83.56
2023-10-09T02:19:35.710Z,83.48
2023-10-09T02:20:19.094Z,83.10
2023-10-09T02:21:02.844Z,83.23
2023-10-09T02:21:35.564Z,83.77
2023-10-09T02:22:13.879Z,83.75
2023-10-09T02:22:45.828Z,83.50
2023-10-09T02:23:18.477Z,83.04
2023-10-09T02:23:50.253Z,82.99
2023-10-09T02:24:29.620Z,82.88
2023-10-09T02:25:06.385Z,83.02
2023-10-09T02:25:44.357Z,83.27
2023-10-09T02:26:26.016Z,82.75
2023-10-09T02:26:57.703Z,82.61
2023-10-09T02:27:41.885Z,82.70
2023-10-09T02:28:19.322Z,82.90
2023-10-09T02:29:00.146Z,82.89
2023-10-09T02:29:36.525Z,82.90
2023-10-09T02:30:21.082Z,83.23
2023-10-09T02:30:52.959Z,82.70
2023-10-09T02:31:27.047Z,82.40
2023-10-09T02:32:14.554Z,82.54
2023-10-09T02:32:50.816Z,82.33
2023-10-09T02:33:29.178Z,82.17
2023-10-09T02:34:01.391Z,81.98
2023-10-09T02:34:39.408Z,81.66
2023-10-09T02:35:31.831Z,81.63
2023-10-09T02:36:06.539Z,81.24
2023-10-09T02:36:44.813Z,81.43
2023-10-09T02:37:24.416Z,81.65
2023-10-09T02:37:59.278Z,82.14
2023-10-09T02:38:32.964Z,81.88
2023-10-09T02:39:07.106Z,81.43
2023-10-09T02:39:44.791Z,81.39
2023-10-09T02:40:25.774Z,81.37
2023-10-09T02:41:06.293Z,80.87
2023-10-09T02:41:39.031Z,81.29
2023-10-09T02:42:13.670Z,80.87
2023-10-09T02:42:46.322Z,80.85
2023-10-09T02:43:19.399Z,81.14
2023-10-09T02:43:56.697Z,81.09
2023-10-09T02:44:36.206Z,80.94
2023-10-09T02:45:11.344Z,81.26
2023-10-09T02:45:51.334Z,81.53
2023-10-09T02:46:32.477Z,81.77
2023-10-09T02:47:06.999Z,81.97
2023-10-09T02:47:41.589Z,81.99
2023-10-09T02:48:14.984Z,82.14
2023-10-09T02:48:54.439Z,82.22
2023-10-09T02:49:27.904Z,82.00
2023-10-09T02:50:07.978Z,82.00
2023-10-09T02:50:40.227Z,81.95
2023-10-09T02:51:19.045Z,81.90
2023-10-09T02:51:54.199Z,82.05
2023-10-09T02:52:33.597Z,82.23
2023-10-09T02:53:10.664Z,82.38
2023-10-09T02:53:42.480Z,82.45
2023-10-09T02:54:20.673Z,82.40
2023-10-09T02:55:00.728Z,82.44
2023-10-09T02:55:39.867Z,82.58
2023-10-09T02:56:15.237Z,82.67
2023-10-09T02:56:49.441Z,82.83
2023-10-09T02:57:24.940Z,82.83
2023-10-09T02:58:17.591Z,83.03
2023-10-09T02:58:49.444Z,83.09
2023-10-09T02:59:23.032Z,83.25
2023-10-09T02:59:54.704Z,83.16
2023-10-09T03:00:32.534Z,83.88
2023-10-09T03:01:04.704Z,84.03
2023-10-09T03:01:40.831Z,83.76
2023-10-09T03:02:12.490Z,83.16
2023-10-09T03:02:44.143Z,83.19
2023-10-09T03:03:18.324Z,83.23
2023-10-09T03:03:50.555Z,83.14
2023-10-09T03:04:25.597Z,83.14
2023-10-09T03:04:57.604Z,83.14
2023-10-09T03:05:29.787Z,83.25
2023-10-09T03:06:02.846Z,83.35
2023-10-09T03:06:39.514Z,83.15
2023-10-09T03:07:15.060Z,83.23
2023-10-09T03:07:47.106Z,83.56
2023-10-09T03:08:20.569Z,83.57
2023-10-09T03:08:52.431Z,83.21
2023-10-09T03:09:29.707Z,82.76
2023-10-09T03:10:01.727Z,82.35
2023-10-09T03:10:35.346Z,82.62
2023-10-09T03:11:07.571Z,83.20
2023-10-09T03:11:39.250Z,83.18
2023-10-09T03:12:13.987Z,83.17
2023-10-09T03:12:45.816Z,83.19
2023-10-09T03:13:20.599Z,82.78
2023-10-09T03:13:52.701Z,82.63
2023-10-09T03:14:29.942Z,82.83
2023-10-09T03:15:03.344Z,82.93
2023-10-09T03:15:37.079Z,83.17
2023-10-09T03:16:10.868Z,83.21
2023-10-09T03:16:44.198Z,83.02
2023-10-09T03:17:15.885Z,83.15
2023-10-09T03:17:49.398Z,83.44
2023-10-09T03:18:21.753Z,83.41
2023-10-09T03:18:54.289Z,83.16
2023-10-09T03:19:30.273Z,83.31
2023-10-09T03:20:13.396Z,83.71
2023-10-09T03:20:45.593Z,83.56
2023-10-09T03:21:18.235Z,83.61
2023-10-09T03:21:49.935Z,83.73
2023-10-09T03:22:21.581Z,83.81
2023-10-09T03:22:55.322Z,83.74
2023-10-09T03:23:27.017Z,83.78
2023-10-09T03:23:58.726Z,84.40
2023-10-09T03:24:32.187Z,83.97
2023-10-09T03:25:04.308Z,83.72
2023-10-09T03:25:36.344Z,83.84
2023-10-09T03:26:20.873Z,83.86
2023-10-09T03:26:56.934Z,84.02
2023-10-09T03:27:28.735Z,84.33
2023-10-09T03:28:00.453Z,84.45
2023-10-09T03:28:32.072Z,84.28
2023-10-09T03:29:12.863Z,84.05
2023-10-09T03:29:50.492Z,84.14
2023-10-09T03:30:25.352Z,83.67
2023-10-09T03:30:57.568Z,83.91
2023-10-09T03:31:33.169Z,84.06
2023-10-09T03:32:05.443Z,84.70
2023-10-09T03:32:37.315Z,84.97
2023-10-09T03:33:09.117Z,84.96
2023-10-09T03:33:41.679Z,84.59
2023-10-09T03:34:13.676Z,84.04
2023-10-09T03:34:45.674Z,83.69
2023-10-09T03:35:29.074Z,83.64
2023-10-09T03:36:01.847Z,83.57
2023-10-09T03:36:38.888Z,83.72
2023-10-09T03:37:22.957Z,84.03
2023-10-09T03:38:01.922Z,83.86
2023-10-09T03:38:35.815Z,83.55
2023-10-09T03:39:26.384Z,83.23
2023-10-09T03:39:58.162Z,83.08
2023-10-09T03:40:29.897Z,82.84
2023-10-09T03:41:07.936Z,82.89
2023-10-09T03:41:43.158Z,83.04
2023-10-09T03:42:20.540Z,83.02
2023-10-09T03:42:53.907Z,82.80
2023-10-09T03:43:26.097Z,82.73
2023-10-09T03:43:57.785Z,82.52
2023-10-09T03:44:29.732Z,82.57
2023-10-09T03:45:01.567Z,82.71
2023-10-09T03:45:36.593Z,82.98
2023-10-09T03:46:21.526Z,82.70
2023-10-09T03:46:53.299Z,82.67
2023-10-09T03:47:25.833Z,82.74
2023-10-09T03:48:13.261Z,83.02
2023-10-09T03:48:47.858Z,82.60
2023-10-09T03:49:27.098Z,82.41
2023-10-09T03:50:03.839Z,82.24
2023-10-09T03:50:38.719Z,81.58
2023-10-09T03:51:12.751Z,81.88
2023-10-09T03:51:46.641Z,81.93
2023-10-09T03:52:19.818Z,82.18
2023-10-09T03:52:53.478Z,81.26
2023-10-09T03:53:27.002Z,80.82
2023-10-09T03:53:58.822Z,81.43
2023-10-09T03:54:31.907Z,81.51
2023-10-09T03:55:09.189Z,81.64
2023-10-09T03:55:41.565Z,81.73
2023-10-09T03:56:13.400Z,81.63
2023-10-09T03:56:45.870Z,81.53
2023-10-09T03:57:21.262Z,81.61
2023-10-09T03:57:53.073Z,81.00
2023-10-09T03:58:24.745Z,80.91
2023-10-09T03:58:56.426Z,80.61
2023-10-09T03:59:33.127Z,80.61
2023-10-09T04:00:25.105Z,80.45
2023-10-09T04:00:56.881Z,80.53
2023-10-09T04:01:39.320Z,80.56
2023-10-09T04:02:11.042Z,80.90
2023-10-09T04:02:43.298Z,80.88
2023-10-09T04:03:15.757Z,80.48
2023-10-09T04:03:47.704Z,80.78
2023-10-09T04:04:23.992Z,81.04
2023-10-09T04:04:55.890Z,80.96
2023-10-09T04:05:28.497Z,80.95
2023-10-09T04:06:01.604Z,81.00
2023-10-09T04:06:34.611Z,81.09
2023-10-09T04:07:08.331Z,81.12
2023-10-09T04:07:39.988Z,81.70
2023-10-09T04:08:17.371Z,81.16
2023-10-09T04:08:51.855Z,80.92
2023-10-09T04:09:23.520Z,81.27
2023-10-09T04:10:15.131Z,81.92
2023-10-09T04:10:55.915Z,82.40
2023-10-09T04:11:29.745Z,81.11
2023-10-09T04:12:13.285Z,81.29
2023-10-09T04:12:44.985Z,81.55
2023-10-09T04:13:19.999Z,81.79
2023-10-09T04:13:53.971Z,81.50
2023-10-09T04:14:28.509Z,80.77
2023-10-09T04:15:03.235Z,80.86
2023-10-09T04:15:36.934Z,81.21
2023-10-09T04:16:27.922Z,81.73
2023-10-09T04:17:07.478Z,81.93
2023-10-09T04:17:44.238Z,81.88
2023-10-09T04:18:19.125Z,82.21
2023-10-09T04:18:50.913Z,82.16
2023-10-09T04:19:23.535Z,82.16
2023-10-09T04:20:30.739Z,82.56
2023-10-09T04:21:20.304Z,82.76
2023-10-09T04:21:56.937Z,81.76
2023-10-09T04:22:28.647Z,81.74
2023-10-09T04:23:06.945Z,81.96
2023-10-09T04:23:59.065Z,82.20
2023-10-09T04:24:39.653Z,81.98
2023-10-09T04:25:16.118Z,81.95
2023-10-09T04:25:52.231Z,81.95
2023-10-09T04:26:28.789Z,82.46
2023-10-09T04:27:04.031Z,81.63
2023-10-09T04:27:38.427Z,80.76
2023-10-09T04:28:19.972Z,79.87
2023-10-09T04:28:54.951Z,79.61
2023-10-09T04:29:29.479Z,79.31
2023-10-09T04:30:02.121Z,79.28
2023-10-09T04:30:41.530Z,79.51
2023-10-09T04:31:19.040Z,79.41
2023-10-09T04:31:53.117Z,79.45
2023-10-09T04:32:26.408Z,79.76
2023-10-09T04:33:01.391Z,79.79
2023-10-09T04:33:33.305Z,79.90
2023-10-09T04:34:24.614Z,79.77
2023-10-09T04:35:19.194Z,79.42
2023-10-09T04:36:10.814Z,79.77
2023-10-09T04:36:50.589Z,79.72
2023-10-09T04:37:37.960Z,80.34
2023-10-09T04:38:09.759Z,80.30
2023-10-09T04:38:54.228Z,80.15
2023-10-09T04:39:31.864Z,80.44
2023-10-09T04:40:16.266Z,80.44
2023-10-09T04:40:53.030Z,80.55
2023-10-09T04:41:34.718Z,79.93
2023-10-09T04:42:25.189Z,80.13
2023-10-09T04:43:00.201Z,80.51
2023-10-09T04:43:34.259Z,79.21
2023-10-09T04:44:24.282Z,79.05
2023-10-09T04:45:05.183Z,79.52
2023-10-09T04:45:45.414Z,80.02
2023-10-09T04:46:24.580Z,79.30
2023-10-09T04:47:15.317Z,79.33
2023-10-09T04:48:00.160Z,79.41
2023-10-09T04:48:38.951Z,79.58
2023-10-09T04:49:29.896Z,79.77
2023-10-09T04:50:01.504Z,78.91
2023-10-09T04:50:33.226Z,78.68
2023-10-09T04:51:35.702Z,78.68
2023-10-09T04:52:19.723Z,79.06
2023-10-09T04:52:51.378Z,79.45
2023-10-09T04:53:26.087Z,79.21
2023-10-09T04:54:15.784Z,78.41
2023-10-09T04:55:06.013Z,78.64
2023-10-09T04:55:39.997Z,78.49
2023-10-09T04:56:16.960Z,78.59
2023-10-09T04:56:54.215Z,78.36
2023-10-09T04:57:26.759Z,78.46
2023-10-09T04:58:10.852Z,78.45
2023-10-09T04:58:42.953Z,78.54
2023-10-09T04:59:19.655Z,78.62
2023-10-09T04:59:52.986Z,78.64
2023-10-09T05:00:27.863Z,78.52
2023-10-09T05:00:59.852Z,78.76
2023-10-09T05:01:38.003Z,78.75
2023-10-09T05:02:20.264Z,78.91
2023-10-09T05:02:57.638Z,79.11
2023-10-09T05:03:30.478Z,79.23
2023-10-09T05:04:05.748Z,79.28
2023-10-09T05:04:40.356Z,79.21
2023-10-09T05:05:37.493Z,79.31
2023-10-09T05:06:22.341Z,79.47
2023-10-09T05:06:57.076Z,79.44
2023-10-09T05:07:47.442Z,79.30
2023-10-09T05:08:23.077Z,79.42
2023-10-09T05:08:56.202Z,79.78
2023-10-09T05:09:47.846Z,79.87
2023-10-09T05:10:25.356Z,79.83
2023-10-09T05:10:59.644Z,79.91
2023-10-09T05:11:49.944Z,80.08
2023-10-09T05:12:27.425Z,80.49
2023-10-09T05:12:59.343Z,80.37
2023-10-09T05:13:40.068Z,80.51
2023-10-09T05:14:15.155Z,80.36
2023-10-09T05:15:05.920Z,79.72
2023-10-09T05:15:37.599Z,79.52
2023-10-09T05:16:19.955Z,79.26
2023-10-09T05:17:02.435Z,78.74
2023-10-09T05:17:35.678Z,78.62
2023-10-09T05:18:10.886Z,78.85
2023-10-09T05:18:57.697Z,78.84
2023-10-09T05:19:56.217Z,79.01
2023-10-09T05:20:28.030Z,78.81
2023-10-09T05:21:19.658Z,78.95
2023-10-09T05:21:53.789Z,79.22
2023-10-09T05:22:37.650Z,79.46
2023-10-09T05:23:24.773Z,80.06
2023-10-09T05:24:15.213Z,80.34
2023-10-09T05:24:48.512Z,79.85
2023-10-09T05:25:40.294Z,79.60
2023-10-09T05:26:30.237Z,79.82
2023-10-09T05:27:19.227Z,80.63
2023-10-09T05:28:13.768Z,80.94
2023-10-09T05:28:53.849Z,80.94
2023-10-09T05:29:49.336Z,79.56
2023-10-09T05:30:27.211Z,79.34
2023-10-09T05:31:17.670Z,79.52
2023-10-09T05:32:09.275Z,80.48
2023-10-09T05:32:49.550Z,80.13
2023-10-09T05:33:30.365Z,80.72
2023-10-09T05:34:02.963Z,80.41
2023-10-09T05:34:35.637Z,79.90
2023-10-09T05:35:16.989Z,79.65
2023-10-09T05:36:14.971Z,79.66
2023-10-09T05:36:49.033Z,79.14
2023-10-09T05:37:26.562Z,78.81
2023-10-09T05:38:16.192Z,78.58
2023-10-09T05:38:59.717Z,78.41
2023-10-09T05:39:42.482Z,77.91
2023-10-09T05:40:17.826Z,78.33
2023-10-09T05:40:54.857Z,78.61
2023-10-09T05:41:47.005Z,78.93
2023-10-09T05:42:23.571Z,78.92
2023-10-09T05:43:01.148Z,78.77
2023-10-09T05:43:51.412Z,78.56
2023-10-09T05:44:43.470Z,78.76
2023-10-09T05:45:20.255Z,79.22
2023-10-09T05:46:10.937Z,78.72
2023-10-09T05:47:02.698Z,77.77
2023-10-09T05:47:34.465Z,78.23
2023-10-09T05:48:15.393Z,78.04
2023-10-09T05:48:55.950Z,77.64
2023-10-09T05:49:46.972Z,78.07
2023-10-09T05:50:18.653Z,77.74
2023-10-09T05:51:13.919Z,77.10
2023-10-09T05:51:47.690Z,77.39
2023-10-09T05:52:54.503Z,77.81
2023-10-09T05:53:44.719Z,78.49
2023-10-09T05:54:45.450Z,78.96
2023-10-09T05:55:35.209Z,78.59
2023-10-09T05:56:25.665Z,77.99
2023-10-09T05:57:16.104Z,78.84
2023-10-09T05:57:56.924Z,78.28
2023-10-09T05:58:57.770Z,78.44
2023-10-09T05:59:52.573Z,78.68
2023-10-09T06:00:43.709Z,79.03
2023-10-09T06:01:47.885Z,79.28
2023-10-09T06:03:01.300Z,78.60
2023-10-09T06:03:49.979Z,78.42
2023-10-09T06:04:22.309Z,78.54
2023-10-09T06:04:56.947Z,78.02
2023-10-09T06:05:52.544Z,78.12
2023-10-09T06:06:57.199Z,78.14
2023-10-09T06:07:48.880Z,78.54
2023-10-09T06:08:40.392Z,77.54
2023-10-09T06:09:13.996Z,77.40
2023-10-09T06:09:55.841Z,78.05
2023-10-09T06:10:40.945Z,77.65
2023-10-09T06:11:32.634Z,77.94
2023-10-09T06:12:33.474Z,77.62
2023-10-09T06:13:05.524Z,77.52
2023-10-09T06:13:48.001Z,77.68
2023-10-09T06:14:47.096Z,77.49
2023-10-09T06:15:33.485Z,77.58
2023-10-09T06:16:31.304Z,77.55
2023-10-09T06:17:23.043Z,78.00
2023-10-09T06:18:01.417Z,77.55
2023-10-09T06:18:36.635Z,77.77
2023-10-09T06:19:24.837Z,78.03
2023-10-09T06:20:22.400Z,77.80
2023-10-09T06:21:12.566Z,76.92
2023-10-09T06:21:53.261Z,77.21
2023-10-09T06:22:37.317Z,77.03
2023-10-09T06:23:18.217Z,77.60
2023-10-09T06:24:08.579Z,77.40
2023-10-09T06:24:43.777Z,77.47
2023-10-09T06:25:19.260Z,77.31
2023-10-09T06:25:54.030Z,76.22
2023-10-09T06:26:26.075Z,76.00
2023-10-09T06:27:00.560Z,76.33
2023-10-09T06:27:32.396Z,76.69
2023-10-09T06:28:04.590Z,76.97
2023-10-09T06:28:36.230Z,77.22
2023-10-09T06:29:18.035Z,77.29
2023-10-09T06:29:49.745Z,77.65
2023-10-09T06:30:28.221Z,77.19
2023-10-09T06:31:20.382Z,77.06
2023-10-09T06:32:17.305Z,76.79
2023-10-09T06:33:04.276Z,76.32
2023-10-09T06:33:56.174Z,76.62
2023-10-09T06:34:45.994Z,76.71
2023-10-09T06:35:24.196Z,76.49
2023-10-09T06:35:55.926Z,76.35
2023-10-09T06:36:32.613Z,76.67
2023-10-09T06:37:35.781Z,76.45
2023-10-09T06:38:23.367Z,75.63
2023-10-09T06:39:15.038Z,75.34
2023-10-09T06:39:58.971Z,75.66
2023-10-09T06:40:59.057Z,75.94
2023-10-09T06:41:38.932Z,75.54
2023-10-09T06:42:30.606Z,75.15
2023-10-09T06:43:08.580Z,75.26
2023-10-09T06:43:44.342Z,75.55
2023-10-09T06:44:35.988Z,75.83
2023-10-09T06:45:11.212Z,75.65
2023-10-09T06:45:46.110Z,73.62
2023-10-09T06:46:27.134Z,74.56
2023-10-09T06:47:09.072Z,74.18
2023-10-09T06:48:06.041Z,74.41
2023-10-09T06:48:40.234Z,74.19
2023-10-09T06:49:30.400Z,74.28
2023-10-09T06:50:28.211Z,73.97
2023-10-09T06:51:16.900Z,73.82
2023-10-09T06:51:48.698Z,73.56
2023-10-09T06:52:40.298Z,73.12
2023-10-09T06:53:11.944Z,72.76
2023-10-09T06:53:55.814Z,73.04
2023-10-09T06:54:28.198Z,73.23
2023-10-09T06:55:10.347Z,73.33
2023-10-09T06:56:02.492Z,74.07
2023-10-09T06:56:34.700Z,72.55
2023-10-09T06:57:14.472Z,72.08
2023-10-09T06:57:50.332Z,72.80
2023-10-09T06:58:29.405Z,72.73
2023-10-09T06:59:26.859Z,72.72
2023-10-09T07:00:16.956Z,72.46
2023-10-09T07:01:00.819Z,72.77
2023-10-09T07:01:44.137Z,73.19
2023-10-09T07:02:27.921Z,71.38
2023-10-09T07:03:06.649Z,71.69
2023-10-09T07:03:53.293Z,71.50
2023-10-09T07:04:34.180Z,71.90
2023-10-09T07:05:14.141Z,71.41
2023-10-09T07:06:06.384Z,71.36
2023-10-09T07:06:38.175Z,71.23
2023-10-09T07:07:14.347Z,70.76
2023-10-09T07:07:56.467Z,70.46
2023-10-09T07:08:38.304Z,71.02
2023-10-09T07:09:10.043Z,71.29
2023-10-09T07:09:44.908Z,71.36
2023-10-09T07:10:39.713Z,71.63
2023-10-09T07:11:43.490Z,71.48
2023-10-09T07:12:22.018Z,70.42
2023-10-09T07:12:56.123Z,70.79
2023-10-09T07:13:28.418Z,70.63
2023-10-09T07:14:03.766Z,70.08
2023-10-09T07:14:35.610Z,70.60
2023-10-09T07:15:07.808Z,70.68
2023-10-09T07:16:02.563Z,70.00
2023-10-09T07:16:40.866Z,69.92
2023-10-09T07:17:30.149Z,70.31
2023-10-09T07:18:20.264Z,69.88
2023-10-09T07:18:56.119Z,69.56
2023-10-09T07:19:41.210Z,69.46
2023-10-09T07:20:15.941Z,69.84
2023-10-09T07:21:00.438Z,69.63
2023-10-09T07:21:32.704Z,69.32
2023-10-09T07:22:05.403Z,69.56
2023-10-09T07:22:57.730Z,69.18
2023-10-09T07:23:34.038Z,68.97
2023-10-09T07:24:16.126Z,68.96
2023-10-09T07:24:58.580Z,69.12
2023-10-09T07:25:42.713Z,68.92
2023-10-09T07:26:24.581Z,68.90
2023-10-09T07:26:56.562Z,68.80
2023-10-09T07:27:52.921Z,70.10
2023-10-09T07:28:30.901Z,68.31
2023-10-09T07:29:17.241Z,68.67
2023-10-09T07:29:49.126Z,68.88
2023-10-09T07:30:31.187Z,68.56
2023-10-09T07:31:04.286Z,69.25
2023-10-09T07:31:41.461Z,68.85
2023-10-09T07:32:21.804Z,68.78
2023-10-09T07:33:13.131Z,68.58
2023-10-09T07:33:58.249Z,68.65
2023-10-09T07:34:33.769Z,68.53
2023-10-09T07:35:05.863Z,68.43
2023-10-09T07:35:48.546Z,68.39
2023-10-09T07:36:36.257Z,68.38
2023-10-09T07:37:08.319Z,68.45
2023-10-09T07:37:43.140Z,68.56
2023-10-09T07:38:30.128Z,68.87
2023-10-09T07:39:03.736Z,68.41
2023-10-09T07:39:36.118Z,68.28
2023-10-09T07:40:09.316Z,68.49
2023-10-09T07:40:57.552Z,68.70
2023-10-09T07:41:33.319Z,68.90
2023-10-09T07:42:20.143Z,68.58
2023-10-09T07:42:54.059Z,68.61
2023-10-09T07:43:34.276Z,69.10
2023-10-09T07:44:20.391Z,68.11
2023-10-09T07:44:55.372Z,68.25
2023-10-09T07:45:27.091Z,68.73
2023-10-09T07:45:58.757Z,67.46
2023-10-09T07:46:49.076Z,67.24
2023-10-09T07:47:29.314Z,67.57
2023-10-09T07:48:01.046Z,66.82
2023-10-09T07:48:51.924Z,67.07
2023-10-09T07:49:26.782Z,66.87
2023-10-09T07:50:01.677Z,66.85
2023-10-09T07:50:49.944Z,66.38
2023-10-09T07:51:31.938Z,66.61
2023-10-09T07:52:04.229Z,66.00
2023-10-09T07:52:44.651Z,66.45
2023-10-09T07:53:19.569Z,66.34
2023-10-09T07:53:58.439Z,65.85
2023-10-09T07:54:37.601Z,66.30
2023-10-09T07:55:28.671Z,66.02
2023-10-09T07:56:07.651Z,65.44
2023-10-09T07:56:46.715Z,65.41
2023-10-09T07:57:18.760Z,65.18
2023-10-09T07:57:53.514Z,65.17
2023-10-09T07:58:26.446Z,67.10
2023-10-09T07:59:01.444Z,65.50
2023-10-09T07:59:33.080Z,64.03
2023-10-09T08:00:34.298Z,64.35
2023-10-09T08:01:09.447Z,65.24
2023-10-09T08:01:54.516Z,64.72
2023-10-09T08:02:32.942Z,64.50
2023-10-09T08:03:10.608Z,63.35
2023-10-09T08:03:50.336Z,63.62
2023-10-09T08:04:39.367Z,63.37
2023-10-09T08:05:20.729Z,64.60
2023-10-09T08:05:55.189Z,63.50
2023-10-09T08:06:39.422Z,64.99
2023-10-09T08:08:04.269Z,63.59
2023-10-09T08:08:38.845Z,63.23
2023-10-09T08:09:20.690Z,63.49
2023-10-09T08:10:14.795Z,63.92
2023-10-09T08:11:05.121Z,63.53
2023-10-09T08:12:01.131Z,63.76
2023-10-09T08:12:51.061Z,63.12
2023-10-09T08:13:41.555Z,62.28
2023-10-09T08:14:32.264Z,61.80
2023-10-09T08:15:20.377Z,61.42
2023-10-09T08:15:57.820Z,61.59
2023-10-09T08:16:38.647Z,61.44
2023-10-09T08:17:30.299Z,61.35
2023-10-09T08:18:08.826Z,60.93
2023-10-09T08:18:46.222Z,61.16
2023-10-09T08:19:36.094Z,61.33
2023-10-09T08:20:14.258Z,61.66
2023-10-09T08:20:58.176Z,61.44
2023-10-09T08:21:59.098Z,61.39